Time;durP1;ratioP1;P1;durP2;ratioP2;P2;SDS_P1;SDS_P2;PMS_P1;PMS_P2;Temp;Humidity;BMP_temperature;BMP_pressure;BME280_temperature;BME280_humidity;BME280_pressure;Samples;Min_cycle;Max_cycle;Signal;HPM_P1;HPM_P2
2023/10/24 08:01:05;;;;;;;;;;;;;;;5.67;100.00;98563.63;5769868;23;20050;-91
2023/10/24 08:03:33;;;;;;;;;;;;;;;5.63;100.00;98573.38;5012016;28;20454;-94
2023/10/24 08:05:58;;;;;;;;;;;;;;;5.69;100.00;98577.53;5016324;28;19922;-95
2023/10/24 08:08:34;;;;;;;;;;;;;;;5.74;100.00;98572.94;5012929;28;19936;-93
2023/10/24 08:11:20;;;;;;;;;;;;;;;5.74;100.00;98565.06;5015058;28;19917;-95
2023/10/24 08:13:54;;;;;;;;;;;;;;;5.70;100.00;98576.63;5011746;28;20375;-94
2023/10/24 08:16:20;;;;;;;;;;;;;;;5.72;100.00;98573.00;5004688;28;19928;-88
2023/10/24 08:18:46;;;;;;;;;;;;;;;5.71;100.00;98575.69;5014525;28;19972;-93
2023/10/24 08:21:12;;;;;;;;;;;;;;;5.70;100.00;98568.75;5013198;28;19917;-92
2023/10/24 08:23:38;;;;;;;;;;;;;;;5.72;100.00;98561.63;5015614;28;19917;-93
2023/10/24 08:26:03;;;;;;;;;;;;;;;5.68;100.00;98557.41;5014971;28;20012;-93
2023/10/24 08:28:28;;;;;;;;;;;;;;;5.76;100.00;98558.81;5007722;28;19917;-95
2023/10/24 08:31:01;;;;;;;;;;;;;;;5.72;100.00;98557.22;5004449;28;19917;-91
2023/10/24 08:33:28;;;;;;;;;;;;;;;5.66;100.00;98546.97;5004572;28;20373;-96
2023/10/24 08:35:53;;;;;;;;;;;;;;;5.71;100.00;98550.28;5014215;28;20368;-90
2023/10/24 08:38:18;;;;;;;;;;;;;;;9.43;100.00;98548.44;5012413;28;20016;-85
2023/10/24 08:40:44;;;;;;;;;;;;;;;9.11;100.00;98544.13;5013865;28;20300;-92
2023/10/24 08:43:09;;;;;;;;;;;;;;;6.77;100.00;98546.50;5001785;28;19992;-95
2023/10/24 08:45:35;;;;;;;;;;;;;;;6.14;100.00;98552.81;5013056;28;20391;-90
2023/10/24 08:48:00;;;;;;;;;;;;;;;6.22;100.00;98555.97;5012299;28;19971;-93
2023/10/24 08:50:26;;;;;;;;;;;;;;;6.11;100.00;98560.84;5013523;28;20365;-88
2023/10/24 08:52:51;;;;;;;;;;;;;;;6.09;100.00;98560.06;5014036;28;19918;-94
2023/10/24 08:55:18;;;;;;;;;;;;;;;5.97;100.00;98557.06;5013852;28;20055;-90
2023/10/24 08:57:45;;;;;;;;;;;;;;;5.98;100.00;98558.78;5005139;28;19956;-92
2023/10/24 09:00:11;;;;;;;;;;;;;;;5.97;100.00;98559.69;5003477;28;19924;-89
2023/10/24 09:02:38;;;;;;;;;;;;;;;5.95;100.00;98548.38;5011222;28;19925;-93
2023/10/24 09:05:04;;;;;;;;;;;;;;;5.99;100.00;98543.84;5011846;28;19976;-92
2023/10/24 09:07:29;;;;;;;;;;;;;;;5.92;100.00;98551.13;5013645;28;20323;-88
2023/10/24 09:09:55;;;;;;;;;;;;;;;5.81;100.00;98545.47;5012812;28;19929;-88
2023/10/24 09:12:23;;;;;;;;;;;;;;;5.91;100.00;98552.03;5002681;28;19923;-91
2023/10/24 09:14:52;;;;;;;;;;;;;;;5.86;100.00;98551.38;5000453;28;19928;-93
2023/10/24 09:17:18;;;;;;;;;;;;;;;5.86;100.00;98540.88;5011047;28;19980;-87
2023/10/24 09:19:43;;;;;;;;;;;;;;;5.83;100.00;98538.38;5012249;28;19921;-91
2023/10/24 09:22:09;;;;;;;;;;;;;;;5.86;100.00;98543.50;5011902;28;19948;-90
2023/10/24 09:24:37;;;;;;;;;;;;;;;5.80;100.00;98538.50;5009974;28;19925;-90
2023/10/24 09:27:03;;;;;;;;;;;;;;;5.88;100.00;98536.41;5008677;28;19977;-91
2023/10/24 09:29:31;;;;;;;;;;;;;;;5.85;100.00;98536.53;5010579;28;19957;-92
2023/10/24 09:31:59;;;;;;;;;;;;;;;5.90;100.00;98529.28;5008541;28;20020;-87
2023/10/24 09:34:27;;;;;;;;;;;;;;;5.82;100.00;98536.66;5000619;28;19972;-93
2023/10/24 09:36:52;;;;;;;;;;;;;;;5.86;100.00;98537.41;5011851;28;19933;-92
2023/10/24 09:39:17;;;;;;;;;;;;;;;5.80;100.00;98523.56;5008942;28;19922;-90
2023/10/24 09:41:46;;;;;;;;;;;;;;;5.85;100.00;98525.16;5000040;28;19922;-92
2023/10/24 09:44:11;;;;;;;;;;;;;;;5.81;100.00;98517.41;5019268;28;19929;-88
2023/10/24 09:46:37;;;;;;;;;;;;;;;5.79;100.00;98521.00;5010693;28;19921;-92
2023/10/24 09:49:06;;;;;;;;;;;;;;;5.81;100.00;98524.44;5002880;28;19937;-93
2023/10/24 09:51:35;;;;;;;;;;;;;;;5.80;100.00;98522.72;5020306;28;19921;-93
2023/10/24 09:54:00;;;;;;;;;;;;;;;5.87;100.00;98512.81;5020767;28;20364;-94
2023/10/24 09:56:26;;;;;;;;;;;;;;;5.86;100.00;98522.47;5007653;28;19967;-91
2023/10/24 09:58:52;;;;;;;;;;;;;;;5.81;100.00;98516.56;5002953;28;20284;-92
2023/10/24 10:01:17;;;;;;;;;;;;;;;5.86;100.00;98517.22;5004400;28;19918;-94
2023/10/24 10:03:43;;;;;;;;;;;;;;;5.86;100.00;98511.97;5002855;28;19972;-92
2023/10/24 10:06:17;;;;;;;;;;;;;;;5.81;100.00;98506.06;5015903;28;19922;-90
2023/10/24 10:08:42;;;;;;;;;;;;;;;5.83;100.00;98501.56;5006941;28;19926;-90
2023/10/24 10:11:08;;;;;;;;;;;;;;;5.76;100.00;98500.13;5007009;28;19921;-91
2023/10/24 10:13:35;;;;;;;;;;;;;;;5.77;100.00;98497.41;5015179;28;19925;-92
2023/10/24 10:16:10;;;;;;;;;;;;;;;5.78;100.00;98493.88;5015438;28;19918;-94
2023/10/24 10:19:05;;;;;;;;;;;;;;;5.82;100.00;98489.34;5016608;28;20379;-93
2023/10/24 10:21:48;;;;;;;;;;;;;;;5.82;100.00;98489.34;4947101;28;19926;-91
2023/10/24 10:24:29;;;;;;;;;;;;;;;5.81;100.00;98491.13;5003968;28;19926;-91
2023/10/24 10:26:57;;;;;;;;;;;;;;;5.80;100.00;98478.03;5007134;28;19972;-92
2023/10/24 10:29:30;;;;;;;;;;;;;;;5.84;100.00;98474.38;5017529;28;19918;-89
2023/10/24 10:32:13;;;;;;;;;;;;;;;5.83;100.00;98475.28;5014578;28;20020;-89
2023/10/24 10:34:39;;;;;;;;;;;;;;;5.87;100.00;98487.38;5013218;28;19917;-88
2023/10/24 10:37:04;;;;;;;;;;;;;;;5.82;100.00;98478.81;5014598;28;20330;-90
2023/10/24 10:39:30;;;;;;;;;;;;;;;5.85;100.00;98475.22;5004990;28;19917;-89
2023/10/24 10:41:55;;;;;;;;;;;;;;;5.87;100.00;98478.63;5004788;28;20072;-90
2023/10/24 10:44:33;;;;;;;;;;;;;;;5.88;100.00;98473.28;5004048;28;19921;-91
2023/10/24 10:46:59;;;;;;;;;;;;;;;5.84;100.00;98477.00;5018743;28;19922;-91
2023/10/24 10:49:26;;;;;;;;;;;;;;;5.89;100.00;98474.13;5005593;28;19921;-92
2023/10/24 10:51:53;;;;;;;;;;;;;;;5.85;100.00;98468.16;5003496;28;19921;-91
2023/10/24 10:54:20;;;;;;;;;;;;;;;5.88;100.00;98461.94;5015259;28;19960;-92
2023/10/24 10:56:47;;;;;;;;;;;;;;;5.90;100.00;98460.94;5007641;28;20512;-88
2023/10/24 10:59:36;;;;;;;;;;;;;;;5.89;100.00;98464.50;5007470;28;20384;-88
2023/10/24 11:02:11;;;;;;;;;;;;;;;5.90;100.00;98450.41;5024747;28;20331;-87
2023/10/24 11:04:36;;;;;;;;;;;;;;;5.94;100.00;98454.63;5005151;28;19956;-90
2023/10/24 11:07:04;;;;;;;;;;;;;;;5.95;100.00;98450.22;5005679;28;20385;-92
2023/10/24 11:09:37;;;;;;;;;;;;;;;5.92;100.00;98447.72;5005396;28;20364;-89
2023/10/24 11:12:21;;;;;;;;;;;;;;;5.90;100.00;98444.31;5015280;28;19967;-90
2023/10/24 11:15:06;;;;;;;;;;;;;;;5.92;100.00;98440.69;5014429;28;20339;-93
2023/10/24 11:17:31;;;;;;;;;;;;;;;5.87;100.00;98447.06;5012787;28;19921;-91
2023/10/24 11:20:02;;;;;;;;;;;;;;;5.82;100.00;98439.38;5014375;28;20384;-89
2023/10/24 11:22:31;;;;;;;;;;;;;;;5.87;100.00;98441.81;5014252;28;19932;-93
2023/10/24 11:24:59;;;;;;;;;;;;;;;5.86;100.00;98435.72;5005421;28;19921;-90
2023/10/24 11:27:24;;;;;;;;;;;;;;;5.85;100.00;98435.78;5014488;28;19969;-89
2023/10/24 11:29:50;;;;;;;;;;;;;;;5.90;100.00;98429.38;5015282;28;19964;-92
2023/10/24 11:32:18;;;;;;;;;;;;;;;5.88;100.00;98433.88;5018960;28;19925;-88
2023/10/24 11:34:45;;;;;;;;;;;;;;;5.91;100.00;98431.09;5004660;28;19917;-91
2023/10/24 11:37:11;;;;;;;;;;;;;;;5.89;100.00;98432.06;5004816;28;19922;-94
2023/10/24 11:39:36;;;;;;;;;;;;;;;5.93;100.00;98437.13;5004585;28;20364;-91
2023/10/24 11:42:07;;;;;;;;;;;;;;;5.94;100.00;98430.97;5004526;28;19918;-91
2023/10/24 11:44:32;;;;;;;;;;;;;;;5.98;100.00;98447.47;5004816;28;20445;-89
2023/10/24 11:47:05;;;;;;;;;;;;;;;6.02;100.00;98450.84;5003693;28;19921;-93
2023/10/24 11:50:07;;;;;;;;;;;;;;;6.03;100.00;98460.41;5018125;28;20041;-96
2023/10/24 11:53:13;;;;;;;;;;;;;;;6.04;100.00;98452.47;5023180;28;20012;-91
2023/10/24 11:55:39;;;;;;;;;;;;;;;6.00;100.00;98448.28;5007558;28;19918;-86
2023/10/24 11:58:08;;;;;;;;;;;;;;;5.98;100.00;98458.00;5016351;28;19944;-92
2023/10/24 12:00:36;;;;;;;;;;;;;;;5.96;100.00;98451.94;5002425;28;19976;-92
2023/10/24 12:03:04;;;;;;;;;;;;;;;6.05;100.00;98453.31;5012500;28;20086;-88
2023/10/24 12:05:30;;;;;;;;;;;;;;;6.02;100.00;98438.53;5014633;28;19921;-93
2023/10/24 12:07:56;;;;;;;;;;;;;;;5.97;100.00;98443.16;5020985;28;19922;-87
2023/10/24 12:10:21;;;;;;;;;;;;;;;6.06;100.00;98444.50;5016792;28;19925;-92
2023/10/24 12:12:47;;;;;;;;;;;;;;;5.97;100.00;98451.88;5003685;28;19945;-91
2023/10/24 12:15:14;;;;;;;;;;;;;;;5.97;100.00;98454.53;5004963;28;19922;-88
2023/10/24 12:17:42;;;;;;;;;;;;;;;5.97;100.00;98456.31;5011301;28;20364;-91
2023/10/24 12:20:08;;;;;;;;;;;;;;;6.02;100.00;98467.47;5002283;28;19921;-88
2023/10/24 12:22:34;;;;;;;;;;;;;;;6.00;100.00;98464.06;5012881;28;20469;-92
2023/10/24 12:25:02;;;;;;;;;;;;;;;6.03;100.00;98469.19;5000733;28;20396;-89
2023/10/24 12:27:27;;;;;;;;;;;;;;;6.06;100.00;98466.38;5002553;28;19917;-91
2023/10/24 12:29:52;;;;;;;;;;;;;;;6.11;100.00;98474.06;5003391;28;19928;-91
2023/10/24 12:32:23;;;;;;;;;;;;;;;6.11;100.00;98474.94;5013300;28;19944;-95
2023/10/24 12:34:48;;;;;;;;;;;;;;;6.09;100.00;98473.28;5003757;28;20009;-88
2023/10/24 12:37:14;;;;;;;;;;;;;;;6.11;100.00;98487.22;5003871;28;20426;-92
2023/10/24 12:39:39;;;;;;;;;;;;;;;6.09;100.00;98483.81;5003985;28;19948;-91
2023/10/24 12:42:04;;;;;;;;;;;;;;;6.09;100.00;98496.97;5004163;28;20381;-87
2023/10/24 12:44:30;;;;;;;;;;;;;;;6.19;100.00;98498.28;5001165;28;19917;-87
2023/10/24 12:47:15;;;;;;;;;;;;;;;6.15;100.00;98496.69;5011607;28;20368;-95
2023/10/24 12:49:40;;;;;;;;;;;;;;;6.06;100.00;98503.19;5009009;28;19952;-87
2023/10/24 12:52:06;;;;;;;;;;;;;;;6.03;100.00;98495.47;5010347;28;19929;-91
2023/10/24 12:54:31;;;;;;;;;;;;;;;6.07;100.00;98499.66;5010061;28;19917;-89
2023/10/24 12:56:57;;;;;;;;;;;;;;;6.09;100.00;98489.06;5011987;28;19972;-90
2023/10/24 12:59:22;;;;;;;;;;;;;;;6.13;100.00;98493.28;5012979;28;20276;-91
2023/10/24 13:01:47;;;;;;;;;;;;;;;6.10;100.00;98485.53;5010111;28;20009;-91
2023/10/24 13:04:13;;;;;;;;;;;;;;;6.17;100.00;98485.19;5012028;28;19922;-91
2023/10/24 13:06:38;;;;;;;;;;;;;;;6.03;100.00;98466.56;5000157;28;20401;-90
2023/10/24 13:09:07;;;;;;;;;;;;;;;6.09;100.00;98468.03;5011881;28;19932;-86
2023/10/24 13:11:37;;;;;;;;;;;;;;;6.02;100.00;98464.00;5011336;28;19976;-92
2023/10/24 13:14:02;;;;;;;;;;;;;;;5.98;100.00;98464.13;5017223;28;19921;-90
2023/10/24 13:16:28;;;;;;;;;;;;;;;5.96;100.00;98468.56;5010420;28;19929;-90
2023/10/24 13:18:53;;;;;;;;;;;;;;;5.95;100.00;98466.84;5003773;28;19917;-92
2023/10/24 13:21:18;;;;;;;;;;;;;;;6.04;100.00;98464.75;5011950;28;20361;-86
2023/10/24 13:23:43;;;;;;;;;;;;;;;5.89;100.00;98467.13;5011070;28;19921;-91
2023/10/24 13:26:09;;;;;;;;;;;;;;;5.97;100.00;98462.41;5010897;28;19972;-91
2023/10/24 13:28:34;;;;;;;;;;;;;;;6.02;100.00;98458.72;5011063;28;19925;-91
2023/10/24 13:30:59;;;;;;;;;;;;;;;6.06;100.00;98455.03;5011177;28;19917;-91
2023/10/24 13:33:25;;;;;;;;;;;;;;;5.98;100.00;98450.97;5003517;28;19997;-86
2023/10/24 13:35:50;;;;;;;;;;;;;;;6.01;100.00;98444.72;5001612;28;19921;-89
2023/10/24 13:38:15;;;;;;;;;;;;;;;5.93;100.00;98450.28;5010395;28;20364;-89
2023/10/24 13:40:40;;;;;;;;;;;;;;;5.94;100.00;98453.78;5000816;28;19922;-90
2023/10/24 13:43:06;;;;;;;;;;;;;;;5.92;100.00;98460.84;5000873;28;19983;-91
2023/10/24 13:45:31;;;;;;;;;;;;;;;5.92;100.00;98464.38;5006923;28;20710;-89
2023/10/24 13:47:56;;;;;;;;;;;;;;;5.87;100.00;98460.22;5001189;28;19921;-89
2023/10/24 13:50:22;;;;;;;;;;;;;;;5.90;100.00;98453.03;5012304;28;20015;-89
2023/10/24 13:52:48;;;;;;;;;;;;;;;5.88;100.00;98452.25;5000284;28;19933;-87
2023/10/24 13:55:13;;;;;;;;;;;;;;;5.94;100.00;98452.00;5011482;28;19925;-87
2023/10/24 13:57:39;;;;;;;;;;;;;;;5.90;100.00;98450.41;4996814;28;19921;-87
2023/10/24 14:00:07;;;;;;;;;;;;;;;5.91;100.00;98456.53;5001489;28;19957;-87
2023/10/24 14:02:35;;;;;;;;;;;;;;;5.93;100.00;98460.78;4999012;28;19921;-90
2023/10/24 14:05:03;;;;;;;;;;;;;;;5.87;100.00;98452.34;5000520;28;19944;-87
2023/10/24 14:07:28;;;;;;;;;;;;;;;5.88;100.00;98462.78;5000442;28;19957;-89
2023/10/24 14:09:53;;;;;;;;;;;;;;;5.85;100.00;98460.28;5011167;28;20418;-90
2023/10/24 14:12:19;;;;;;;;;;;;;;;5.84;100.00;98461.22;5001787;28;20308;-88
2023/10/24 14:14:44;;;;;;;;;;;;;;;5.93;100.00;98454.69;5001419;28;19921;-88
2023/10/24 14:17:09;;;;;;;;;;;;;;;5.91;100.00;98467.91;5010701;28;20031;-89
2023/10/24 14:19:35;;;;;;;;;;;;;;;5.88;100.00;98462.78;5002439;28;20387;-87
2023/10/24 14:22:19;;;;;;;;;;;;;;;5.86;100.00;98469.91;4997534;28;20075;-94
2023/10/24 14:24:44;;;;;;;;;;;;;;;5.82;100.00;98477.06;5012115;28;19961;-90
2023/10/24 14:27:09;;;;;;;;;;;;;;;5.88;100.00;98464.56;5013504;28;20258;-89
2023/10/24 14:29:35;;;;;;;;;;;;;;;5.83;100.00;98465.63;5002641;28;19922;-89
2023/10/24 14:32:01;;;;;;;;;;;;;;;5.76;100.00;98463.31;5010581;28;20000;-92
2023/10/24 14:34:26;;;;;;;;;;;;;;;5.83;100.00;98467.41;5003157;28;19979;-88
2023/10/24 14:36:54;;;;;;;;;;;;;;;5.78;100.00;98467.59;5011423;28;19928;-92
2023/10/24 14:39:19;;;;;;;;;;;;;;;5.85;100.00;98468.16;5005914;28;19964;-90
2023/10/24 14:41:44;;;;;;;;;;;;;;;5.84;100.00;98471.75;5015348;28;20010;-88
2023/10/24 14:44:10;;;;;;;;;;;;;;;5.80;100.00;98464.91;5014608;28;19921;-89
2023/10/24 14:46:35;;;;;;;;;;;;;;;5.87;100.00;98463.72;5020674;28;20007;-90
2023/10/24 14:49:00;;;;;;;;;;;;;;;5.88;100.00;98457.53;5001629;28;20326;-90
2023/10/24 14:51:26;;;;;;;;;;;;;;;5.86;100.00;98469.06;5013434;28;19973;-90
2023/10/24 14:53:51;;;;;;;;;;;;;;;5.92;100.00;98464.38;4997593;28;20449;-89
2023/10/24 14:56:16;;;;;;;;;;;;;;;5.91;100.00;98461.81;5014940;28;19926;-88
2023/10/24 14:58:42;;;;;;;;;;;;;;;5.88;100.00;98462.78;5014739;28;19929;-89
2023/10/24 15:01:08;;;;;;;;;;;;;;;5.84;100.00;98461.22;4995676;28;20368;-90
2023/10/24 15:03:33;;;;;;;;;;;;;;;5.91;100.00;98462.66;5014121;28;19932;-89
2023/10/24 15:05:59;;;;;;;;;;;;;;;5.88;100.00;98449.63;4996499;28;19922;-89
2023/10/24 15:08:24;;;;;;;;;;;;;;;5.82;100.00;98445.53;5014101;28;20349;-89
2023/10/24 15:10:49;;;;;;;;;;;;;;;5.91;100.00;98448.66;4997264;28;19922;-90
2023/10/24 15:13:15;;;;;;;;;;;;;;;5.90;100.00;98442.53;5013814;28;20400;-89
2023/10/24 15:15:40;;;;;;;;;;;;;;;5.86;100.00;98438.34;4995370;28;19925;-90
2023/10/24 15:18:05;;;;;;;;;;;;;;;5.84;100.00;98440.19;5012700;28;19921;-88
2023/10/24 15:20:31;;;;;;;;;;;;;;;5.83;100.00;98436.69;4997123;28;19917;-91
2023/10/24 15:23:04;;;;;;;;;;;;;;;5.85;100.00;98435.78;4997119;28;19917;-91
2023/10/24 15:25:31;;;;;;;;;;;;;;;5.89;100.00;98432.94;4995208;28;19925;-87
2023/10/24 15:27:56;;;;;;;;;;;;;;;5.85;100.00;98431.38;5013478;28;19929;-92
2023/10/24 15:30:22;;;;;;;;;;;;;;;5.82;100.00;98435.00;4994385;28;20380;-91
2023/10/24 15:32:50;;;;;;;;;;;;;;;5.91;100.00;98436.34;4994917;28;19960;-91
2023/10/24 15:35:15;;;;;;;;;;;;;;;5.85;100.00;98435.78;4995936;28;20030;-91
2023/10/24 15:40:27;;;;;;;;;;;;;;;5.87;100.00;98432.19;5013355;28;19974;-91
2023/10/24 15:42:55;;;;;;;;;;;;;;;5.91;100.00;98431.09;4996845;28;19913;-90
2023/10/24 15:45:22;;;;;;;;;;;;;;;5.88;100.00;98446.16;5011909;28;19929;-91
2023/10/24 15:48:00;;;;;;;;;;;;;;;;;;;;;
2023/10/24 15:50:28;;;;;;;;;;;;;;;5.89;100.00;98443.47;5013499;28;19921;-91
2023/10/24 15:52:53;;;;;;;;;;;;;;;5.86;100.00;98446.22;4996547;28;20368;-91
2023/10/24 15:55:20;;;;;;;;;;;;;;;5.92;100.00;98443.34;4996554;28;19925;-92
2023/10/24 15:57:46;;;;;;;;;;;;;;;5.88;100.00;98443.53;5013460;28;19924;-91
2023/10/24 16:00:13;;;;;;;;;;;;;;;5.81;100.00;98456.09;5013354;28;19922;-90
2023/10/24 16:02:41;;;;;;;;;;;;;;;5.85;100.00;98454.19;4995960;28;20459;-92
2023/10/24 16:05:06;;;;;;;;;;;;;;;5.88;100.00;98448.78;4995433;28;19924;-91
2023/10/24 16:07:34;;;;;;;;;;;;;;;5.87;100.00;98450.56;5013799;28;20351;-92
2023/10/24 16:10:00;;;;;;;;;;;;;;;5.83;100.00;98443.75;4996781;28;19983;-92
2023/10/24 16:12:26;;;;;;;;;;;;;;;5.82;100.00;98448.16;4996106;28;19917;-91
2023/10/24 16:14:51;;;;;;;;;;;;;;;5.90;100.00;98444.31;5013679;28;19917;-89
2023/10/24 16:20:37;;;;;;;;;;;;;;;5.85;100.00;98444.50;4954999;28;19918;-87
2023/10/24 16:23:03;;;;;;;;;;;;;;;5.89;100.00;98438.22;5014654;28;20301;-92
2023/10/24 16:25:31;;;;;;;;;;;;;;;5.92;100.00;98440.69;4995947;28;20001;-90
2023/10/24 16:27:56;;;;;;;;;;;;;;;5.86;100.00;98440.13;4995738;28;19918;-91
2023/10/24 16:30:27;;;;;;;;;;;;;;;5.87;100.00;98442.69;4994237;28;19963;-89
2023/10/24 16:32:53;;;;;;;;;;;;;;;5.91;100.00;98441.63;4995555;28;19917;-90
2023/10/24 16:35:18;;;;;;;;;;;;;;;5.90;100.00;98445.16;4995650;28;20546;-91
2023/10/24 16:37:44;;;;;;;;;;;;;;;5.91;100.00;98443.41;4995634;28;19964;-89
2023/10/24 16:40:09;;;;;;;;;;;;;;;5.85;100.00;98446.31;4995830;28;19921;-92
2023/10/24 16:42:37;;;;;;;;;;;;;;;5.86;100.00;98459.38;4995318;28;20007;-91
2023/10/24 16:45:03;;;;;;;;;;;;;;;5.90;100.00;98452.19;4995611;28;20430;-91
2023/10/24 16:47:54;;;;;;;;;;;;;;;5.88;100.00;98460.16;5010087;28;19918;-91
2023/10/24 16:50:17;;;;;;;;;;;;;;;5.89;100.00;98453.09;5012172;28;19917;-91
2023/10/24 16:58:54;;;;;;;;;;;;;;;5.91;100.00;98457.38;5011290;28;20432;-92
2023/10/24 17:01:29;;;;;;;;;;;;;;;5.90;100.00;98471.44;5010679;28;20345;-91
2023/10/24 17:03:57;;;;;;;;;;;;;;;5.80;100.00;98468.38;4994944;28;19987;-90
2023/10/24 17:06:22;;;;;;;;;;;;;;;5.86;100.00;98466.41;4994991;28;20440;-91
2023/10/24 17:08:48;;;;;;;;;;;;;;;5.80;100.00;98475.41;4995281;28;19925;-91
2023/10/24 17:11:28;;;;;;;;;;;;;;;5.80;100.00;98471.00;4995968;28;20008;-94
2023/10/24 17:14:03;;;;;;;;;;;;;;;5.91;100.00;98473.16;4971680;28;19922;-91
2023/10/24 17:16:28;;;;;;;;;;;;;;;5.83;100.00;98475.28;4954844;28;19933;-90
2023/10/24 17:18:58;;;;;;;;;;;;;;;5.86;100.00;98480.41;4971608;28;20450;-90
2023/10/24 17:21:33;;;;;;;;;;;;;;;5.79;100.00;98474.56;4954583;28;19922;-90
2023/10/24 17:23:59;;;;;;;;;;;;;;;5.75;100.00;98477.41;4971324;28;20334;-90
2023/10/24 17:26:24;;;;;;;;;;;;;;;5.81;100.00;98477.13;4971192;28;19980;-92
2023/10/24 17:28:49;;;;;;;;;;;;;;;5.81;100.00;98480.59;4971127;28;20409;-90
2023/10/24 17:31:19;;;;;;;;;;;;;;;5.86;100.00;98485.66;4953671;28;20289;-91
2023/10/24 17:33:44;;;;;;;;;;;;;;;5.83;100.00;98481.38;4954487;28;19922;-89
2023/10/24 17:36:09;;;;;;;;;;;;;;;5.81;100.00;98483.25;4971110;28;19918;-89
2023/10/24 17:38:35;;;;;;;;;;;;;;;5.84;100.00;98477.00;4954734;28;19930;-93
2023/10/24 17:41:09;;;;;;;;;;;;;;;5.82;100.00;98478.81;4954341;28;19925;-90
2023/10/24 17:43:35;;;;;;;;;;;;;;;5.75;100.00;98477.41;4970580;28;19927;-92
2023/10/24 17:46:03;;;;;;;;;;;;;;;5.77;100.00;98483.44;4991922;28;20281;-88
2023/10/24 17:48:31;;;;;;;;;;;;;;;5.91;100.00;98481.06;4994526;28;19960;-90
2023/10/24 17:50:56;;;;;;;;;;;;;;;5.91;100.00;98480.22;4994571;28;19949;-89
2023/10/24 17:53:21;;;;;;;;;;;;;;;5.80;100.00;98480.69;4994598;28;19949;-90
2023/10/24 17:55:47;;;;;;;;;;;;;;;5.75;100.00;98493.16;4994375;28;19917;-90
2023/10/24 17:58:12;;;;;;;;;;;;;;;5.82;100.00;98492.84;4994500;28;20012;-89
2023/10/24 18:00:38;;;;;;;;;;;;;;;5.85;100.00;98489.22;5010939;28;19921;-86
2023/10/24 18:03:06;;;;;;;;;;;;;;;5.81;100.00;98492.91;4994466;28;19921;-94
2023/10/24 18:05:31;;;;;;;;;;;;;;;5.85;100.00;98491.00;5011997;28;20004;-90
2023/10/24 18:07:59;;;;;;;;;;;;;;;5.89;100.00;98495.16;4994653;28;20063;-90
2023/10/24 18:10:24;;;;;;;;;;;;;;;5.92;100.00;98498.53;5011721;28;19971;-90
2023/10/24 18:12:49;;;;;;;;;;;;;;;5.87;100.00;98495.28;4997619;28;19921;-90
2023/10/24 18:15:15;;;;;;;;;;;;;;;5.82;100.00;98492.84;5014774;28;20365;-89
2023/10/24 18:17:41;;;;;;;;;;;;;;;5.80;100.00;98493.81;5015451;28;19921;-91
2023/10/24 18:20:07;;;;;;;;;;;;;;;5.77;100.00;98499.22;5016110;28;19918;-86
2023/10/24 18:22:34;;;;;;;;;;;;;;;5.86;100.00;98496.19;4998255;28;19914;-90
2023/10/24 18:24:59;;;;;;;;;;;;;;;5.80;100.00;98492.03;4998281;28;19921;-90
2023/10/24 18:27:24;;;;;;;;;;;;;;;5.78;100.00;98496.50;4998433;28;20403;-87
2023/10/24 18:29:49;;;;;;;;;;;;;;;5.81;100.00;98499.00;5016317;28;20421;-89
2023/10/24 18:35:16;;;;;;;;;;;;;;;5.75;100.00;98501.91;5004501;28;19913;-93
2023/10/24 18:37:41;;;;;;;;;;;;;;;5.69;100.00;98488.19;5015741;28;19925;-90
2023/10/24 18:40:16;;;;;;;;;;;;;;;5.75;100.00;98493.16;5015582;28;19921;-89
2023/10/24 18:42:43;;;;;;;;;;;;;;;5.82;100.00;98484.97;4998064;28;20365;-88
2023/10/24 18:45:13;;;;;;;;;;;;;;;5.79;100.00;98484.22;5014765;28;20000;-89
2023/10/24 18:47:38;;;;;;;;;;;;;;;5.81;100.00;98487.66;4995892;28;19917;-89
2023/10/24 18:50:07;;;;;;;;;;;;;;;5.79;100.00;98489.47;4997625;28;20036;-88
2023/10/24 18:52:35;;;;;;;;;;;;;;;5.82;100.00;98484.09;4997026;28;19921;-89
2023/10/24 18:55:04;;;;;;;;;;;;;;;5.82;100.00;98495.47;4997622;28;19925;-90
2023/10/24 18:57:30;;;;;;;;;;;;;;;5.84;100.00;98498.03;4997533;28;20487;-90
2023/10/24 18:59:55;;;;;;;;;;;;;;;5.82;100.00;98489.34;4997589;28;20373;-87
2023/10/24 19:02:21;;;;;;;;;;;;;;;5.84;100.00;98498.03;5013750;28;19925;-90
2023/10/24 19:04:48;;;;;;;;;;;;;;;5.85;100.00;98493.63;4997167;28;20323;-88
2023/10/24 19:07:14;;;;;;;;;;;;;;;5.82;100.00;98495.47;5015018;28;20257;-91
2023/10/24 19:09:39;;;;;;;;;;;;;;;5.79;100.00;98500.00;4997746;28;19925;-88
2023/10/24 19:12:04;;;;;;;;;;;;;;;5.73;100.00;98500.28;5015278;28;19928;-87
2023/10/24 19:14:30;;;;;;;;;;;;;;;5.77;100.00;98494.78;5014997;28;20365;-88
2023/10/24 19:16:55;;;;;;;;;;;;;;;5.73;100.00;98492.41;5014061;28;19925;-89
2023/10/24 19:19:21;;;;;;;;;;;;;;;5.80;100.00;98499.91;5014924;28;19921;-87
2023/10/24 19:21:46;;;;;;;;;;;;;;;5.78;100.00;98507.03;5014692;28;19914;-92
2023/10/24 19:24:12;;;;;;;;;;;;;;;5.78;100.00;98503.56;4998126;28;19944;-89
2023/10/24 19:26:57;;;;;;;;;;;;;;;5.87;100.00;98500.53;5014394;28;20023;-88
2023/10/24 19:29:46;;;;;;;;;;;;;;;5.79;100.00;98506.13;4995714;28;19922;-89
2023/10/24 19:32:11;;;;;;;;;;;;;;;5.81;100.00;98504.28;4963504;28;19913;-88
2023/10/24 19:34:38;;;;;;;;;;;;;;;5.86;100.00;98509.31;4996692;28;20352;-89
2023/10/24 19:37:10;;;;;;;;;;;;;;;5.87;100.00;98518.94;5014367;28;20408;-88
2023/10/24 19:39:35;;;;;;;;;;;;;;;5.80;100.00;98513.06;5014271;28;19921;-92
2023/10/24 19:42:03;;;;;;;;;;;;;;;5.82;100.00;98526.13;4996865;28;19921;-90
2023/10/24 19:44:28;;;;;;;;;;;;;;;5.74;100.00;98528.25;4996581;28;19944;-89
2023/10/24 19:46:59;;;;;;;;;;;;;;;5.80;100.00;98530.63;4995557;28;19921;-90
2023/10/24 19:49:25;;;;;;;;;;;;;;;5.87;100.00;98533.84;5014201;28;19918;-90
2023/10/24 19:51:57;;;;;;;;;;;;;;;5.80;100.00;98528.84;5013892;28;20261;-90
2023/10/24 19:54:23;;;;;;;;;;;;;;;5.84;100.00;98534.84;4996033;28;19920;-91
2023/10/24 19:56:49;;;;;;;;;;;;;;;5.84;100.00;98542.72;4996417;28;19922;-92
2023/10/24 19:59:15;;;;;;;;;;;;;;;5.75;100.00;98535.22;4997686;28;19925;-94
2023/10/24 20:01:40;;;;;;;;;;;;;;;5.76;100.00;98536.91;5012431;28;20407;-89
2023/10/24 20:04:07;;;;;;;;;;;;;;;5.79;100.00;98542.03;4996509;28;19921;-90
2023/10/24 20:06:34;;;;;;;;;;;;;;;5.67;100.00;98538.19;4995505;28;19917;-91
2023/10/24 20:09:00;;;;;;;;;;;;;;;5.69;100.00;98532.84;4996283;28;20269;-89
2023/10/24 20:11:25;;;;;;;;;;;;;;;5.65;100.00;98545.28;4996490;28;20024;-92
2023/10/24 20:13:50;;;;;;;;;;;;;;;5.71;100.00;98552.03;5014661;28;19979;-90
2023/10/24 20:16:19;;;;;;;;;;;;;;;5.73;100.00;98544.97;5012613;28;19925;-90
2023/10/24 20:18:50;;;;;;;;;;;;;;;5.72;100.00;98543.25;4996605;28;19918;-91
2023/10/24 20:21:15;;;;;;;;;;;;;;;5.78;100.00;98545.63;5013222;28;20020;-91
2023/10/24 20:23:48;;;;;;;;;;;;;;;5.77;100.00;98546.53;5012270;28;20077;-92
2023/10/24 20:26:13;;;;;;;;;;;;;;;5.75;100.00;98540.50;5014510;28;19918;-93
2023/10/24 20:28:46;;;;;;;;;;;;;;;5.72;100.00;98535.34;4995719;28;20369;-91
2023/10/24 20:31:11;;;;;;;;;;;;;;;5.61;100.00;98527.94;4994742;28;19921;-92
2023/10/24 20:33:36;;;;;;;;;;;;;;;5.75;100.00;98537.84;4995089;28;19967;-92
2023/10/24 20:36:04;;;;;;;;;;;;;;;5.77;100.00;98538.63;4996146;28;19924;-93
2023/10/24 20:38:29;;;;;;;;;;;;;;;5.72;100.00;98540.63;4995550;28;20349;-92
2023/10/24 20:40:57;;;;;;;;;;;;;;;5.71;100.00;98537.16;5013350;28;19968;-91
2023/10/24 20:43:23;;;;;;;;;;;;;;;5.65;100.00;98550.53;4995876;28;19971;-86
2023/10/24 20:45:50;;;;;;;;;;;;;;;5.60;100.00;98549.84;4994345;28;20875;-91
2023/10/24 20:48:15;;;;;;;;;;;;;;;5.66;100.00;98546.97;5013141;28;19971;-89
2023/10/24 20:50:48;;;;;;;;;;;;;;;5.70;100.00;98545.09;5013116;28;19992;-90
2023/10/24 20:53:16;;;;;;;;;;;;;;;5.67;100.00;98551.31;4995558;28;19925;-89
2023/10/24 20:55:44;;;;;;;;;;;;;;;5.67;100.00;98558.38;4995266;28;19920;-91
2023/10/24 20:58:09;;;;;;;;;;;;;;;5.72;100.00;98551.13;4994891;28;19922;-91
2023/10/24 21:00:34;;;;;;;;;;;;;;;5.71;100.00;98554.66;4994348;28;19944;-91
2023/10/24 21:03:00;;;;;;;;;;;;;;;5.68;100.00;98560.06;5012757;28;20012;-89
2023/10/24 21:05:25;;;;;;;;;;;;;;;5.70;100.00;98558.22;4995191;28;19921;-91